createdAt,value
2023-04-02T00:00:12.224Z,7.00
2023-04-02T00:02:50.988Z,7.10
2023-04-02T00:05:31.582Z,6.80
2023-04-02T00:08:18.218Z,7.00
2023-04-02T00:10:48.144Z,5.80
2023-04-02T00:13:23.086Z,5.80
2023-04-02T00:15:51.057Z,5.50
2023-04-02T00:18:19.643Z,5.40
2023-04-02T00:20:51.304Z,6.50
2023-04-02T00:23:18.012Z,7.40
2023-04-02T00:25:47.392Z,6.20
2023-04-02T00:28:16.439Z,6.20
2023-04-02T00:30:53.902Z,6.40
2023-04-02T00:33:27.003Z,4.60
2023-04-02T00:35:54.659Z,5.60
2023-04-02T00:38:31.839Z,5.30
2023-04-02T00:41:01.828Z,5.00
2023-04-02T00:43:31.105Z,5.80
2023-04-02T00:48:31.818Z,5.50
2023-04-02T00:51:07.882Z,5.70
2023-04-02T00:53:34.977Z,5.70
2023-04-02T00:56:02.351Z,4.80
2023-04-02T00:58:34.095Z,4.30
2023-04-02T01:01:19.256Z,4.60
2023-04-02T01:03:58.496Z,4.90
2023-04-02T01:06:29.734Z,5.20
2023-04-02T01:09:19.739Z,5.50
2023-04-02T01:12:10.549Z,6.00
2023-04-02T01:15:04.122Z,6.10
2023-04-02T01:17:54.729Z,5.40
2023-04-02T01:20:55.458Z,4.30
2023-04-02T01:23:48.118Z,4.30
2023-04-02T01:26:27.448Z,4.50
2023-04-02T01:29:00.527Z,4.80
2023-04-02T01:31:27.798Z,4.80
2023-04-02T01:33:54.814Z,4.70
2023-04-02T01:36:28.184Z,4.50
2023-04-02T01:39:03.245Z,5.80
2023-04-02T01:41:40.862Z,5.60
2023-04-02T01:46:40.417Z,4.10
2023-04-02T01:49:21.580Z,4.10
2023-04-02T01:51:56.470Z,4.70
2023-04-02T01:54:24.567Z,5.90
2023-04-02T01:56:51.784Z,5.40
2023-04-02T01:59:22.247Z,6.60
2023-04-02T02:01:54.546Z,5.80
2023-04-02T02:04:21.938Z,6.20
2023-04-02T02:06:49.738Z,5.80
2023-04-02T02:09:26.250Z,6.10
2023-04-02T02:11:53.002Z,4.80
2023-04-02T02:14:27.331Z,3.90
2023-04-02T02:17:02.009Z,5.10
2023-04-02T02:20:00.471Z,5.70
2023-04-02T02:22:37.193Z,5.20
2023-04-02T02:25:11.191Z,6.50
2023-04-02T02:28:08.437Z,5.60
2023-04-02T02:30:38.706Z,5.00
2023-04-02T02:33:26.242Z,6.10
2023-04-02T02:36:08.741Z,4.70
2023-04-02T02:38:48.979Z,4.70
2023-04-02T02:41:42.046Z,5.60
2023-04-02T02:44:09.130Z,6.50
2023-04-02T02:46:43.634Z,6.90
2023-04-02T02:49:19.670Z,5.20
2023-04-02T02:51:54.019Z,5.60
2023-04-02T02:54:26.216Z,5.60
2023-04-02T02:56:57.210Z,6.40
2023-04-02T02:59:24.657Z,4.80
2023-04-02T03:01:51.949Z,4.90
2023-04-02T03:04:22.797Z,4.50
2023-04-02T03:06:53.291Z,5.00
2023-04-02T03:09:52.471Z,4.30
2023-04-02T03:12:35.222Z,4.90
2023-04-02T03:15:27.457Z,5.10
2023-04-02T03:18:01.961Z,5.10
2023-04-02T03:20:48.164Z,5.80
2023-04-02T03:23:32.724Z,5.30
2023-04-02T03:26:13.569Z,4.80
2023-04-02T03:28:42.923Z,4.30
2023-04-02T03:31:18.088Z,4.00
2023-04-02T03:33:48.351Z,4.70
2023-04-02T03:36:30.914Z,4.60
2023-04-02T03:39:10.572Z,5.30
2023-04-02T03:41:39.716Z,5.70
2023-04-02T03:44:36.517Z,5.30
2023-04-02T03:47:30.990Z,5.10
2023-04-02T03:50:08.068Z,4.50
2023-04-02T03:52:37.125Z,4.40
2023-04-02T03:55:22.086Z,4.70
2023-04-02T03:57:59.110Z,5.00
2023-04-02T04:00:33.654Z,5.20
2023-04-02T04:03:25.090Z,4.90
2023-04-02T04:06:00.833Z,5.70
2023-04-02T04:08:57.198Z,5.30
2023-04-02T04:11:27.570Z,4.90
2023-04-02T04:14:10.654Z,4.50
2023-04-02T04:16:53.743Z,3.70
2023-04-02T04:19:30.010Z,4.40
2023-04-02T04:22:17.937Z,5.00
2023-04-02T04:24:47.113Z,4.90
2023-04-02T04:27:36.155Z,4.60
2023-04-02T04:30:27.481Z,4.50
2023-04-02T04:33:05.675Z,4.60
2023-04-02T04:35:54.630Z,5.50
2023-04-02T04:38:49.346Z,4.50
2023-04-02T04:41:17.690Z,3.30
2023-04-02T04:44:14.702Z,4.20
2023-04-02T04:46:46.161Z,4.00
2023-04-02T04:49:31.459Z,4.40
2023-04-02T04:52:12.719Z,4.90
2023-04-02T04:54:39.631Z,5.00
2023-04-02T04:57:07.327Z,4.50
2023-04-02T04:59:42.378Z,4.50
2023-04-02T05:02:13.159Z,4.50
2023-04-02T05:04:41.898Z,3.80
2023-04-02T05:07:16.724Z,3.80
2023-04-02T05:10:09.612Z,3.30
2023-04-02T05:13:08.119Z,4.00
2023-04-02T05:15:36.394Z,4.10
2023-04-02T05:18:18.962Z,4.20
2023-04-02T05:20:55.896Z,4.00
2023-04-02T05:23:31.721Z,3.50
2023-04-02T05:26:06.429Z,3.10
2023-04-02T05:28:54.498Z,3.60
2023-04-02T05:31:43.875Z,3.70
2023-04-02T05:34:11.896Z,3.60
2023-04-02T05:36:46.646Z,3.50
2023-04-02T05:39:16.781Z,4.50
2023-04-02T05:41:48.324Z,3.70
2023-04-02T05:44:31.592Z,3.60
2023-04-02T05:47:14.639Z,3.30
2023-04-02T05:49:49.380Z,3.10
2023-04-02T05:52:23.380Z,3.90
2023-04-02T05:54:59.504Z,3.70
2023-04-02T05:57:44.565Z,3.80
2023-04-02T06:00:39.630Z,3.50
2023-04-02T06:03:28.959Z,3.50
2023-04-02T06:05:59.610Z,4.10
2023-04-02T06:08:52.886Z,3.70
2023-04-02T06:11:27.630Z,3.70
2023-04-02T06:13:54.882Z,3.30
2023-04-02T06:16:26.824Z,3.60
2023-04-02T06:19:00.859Z,3.90
2023-04-02T06:21:27.763Z,3.70
2023-04-02T06:24:04.583Z,4.50
2023-04-02T06:26:38.483Z,3.80
2023-04-02T06:29:07.180Z,3.30
2023-04-02T06:31:38.385Z,2.90
2023-04-02T06:34:11.736Z,3.30
2023-04-02T06:36:40.060Z,3.50
2023-04-02T06:39:14.481Z,3.60
2023-04-02T06:41:41.568Z,3.50
2023-04-02T06:44:30.107Z,3.40
2023-04-02T06:47:31.664Z,3.80
2023-04-02T06:50:23.415Z,2.60
2023-04-02T06:52:56.581Z,2.60
2023-04-02T06:55:27.928Z,2.80
2023-04-02T06:57:55.029Z,2.40
2023-04-02T07:00:36.327Z,2.80
2023-04-02T07:03:07.393Z,3.10
2023-04-02T07:05:35.215Z,2.80
2023-04-02T07:08:05.074Z,2.80
2023-04-02T07:18:05.051Z,2.80
2023-04-02T07:23:06.549Z,3.00
2023-04-02T07:25:33.957Z,3.10
2023-04-02T07:28:01.619Z,3.20
2023-04-02T07:30:28.376Z,3.20
2023-04-02T07:32:56.791Z,3.00
2023-04-02T07:35:24.084Z,3.00
2023-04-02T07:37:55.661Z,2.70
2023-04-02T07:40:24.287Z,2.80
2023-04-02T07:42:51.649Z,2.90
2023-04-02T07:45:18.545Z,3.20
2023-04-02T07:47:45.425Z,3.20
2023-04-02T07:50:12.491Z,2.80
2023-04-02T08:00:21.471Z,2.50
2023-04-02T08:02:48.871Z,2.60
2023-04-02T08:05:15.927Z,2.90
2023-04-02T08:07:43.665Z,3.30
2023-04-02T08:10:11.507Z,3.00
2023-04-02T08:12:42.875Z,3.30
2023-04-02T08:15:14.386Z,3.40
2023-04-02T08:17:41.540Z,3.00
2023-04-02T08:20:14.397Z,2.20
2023-04-02T08:22:41.632Z,2.20
2023-04-02T08:25:10.065Z,4.00
2023-04-02T08:27:37.302Z,3.60
2023-04-02T08:30:05.088Z,3.40
2023-04-02T08:32:33.995Z,2.80
2023-04-02T08:35:00.851Z,2.80
2023-04-02T08:37:28.484Z,2.60
2023-04-02T08:39:55.522Z,2.90
2023-04-02T08:42:28.402Z,2.30
2023-04-02T08:45:25.029Z,2.40
2023-04-02T08:48:06.540Z,2.60
2023-04-02T08:50:35.935Z,3.40
2023-04-02T08:53:26.087Z,3.40
2023-04-02T08:56:08.830Z,3.60
2023-04-02T08:58:59.636Z,3.80
2023-04-02T09:01:41.612Z,3.90
2023-04-02T09:04:20.172Z,2.60
2023-04-02T09:06:47.610Z,13.30
2023-04-02T09:09:15.694Z,8.40
2023-04-02T09:11:54.963Z,6.30
2023-04-02T09:15:09.224Z,4.30
2023-04-02T09:17:50.484Z,3.90
2023-04-02T09:20:26.441Z,3.00
2023-04-02T09:22:53.752Z,4.60
2023-04-02T09:25:22.944Z,4.20
2023-04-02T09:27:54.486Z,3.30
2023-04-02T09:30:59.451Z,2.50
2023-04-02T09:33:49.582Z,3.10
2023-04-02T09:36:22.049Z,3.30
2023-04-02T09:39:23.156Z,3.00
2023-04-02T09:42:02.895Z,2.70
2023-04-02T09:44:32.834Z,3.10
2023-04-02T09:47:04.572Z,3.10
2023-04-02T09:49:36.966Z,3.30
2023-04-02T09:52:21.058Z,2.90
2023-04-02T09:55:08.692Z,2.50
2023-04-02T09:57:38.269Z,2.60
2023-04-02T10:00:12.363Z,3.60
2023-04-02T10:03:01.100Z,3.60
2023-04-02T10:05:40.009Z,4.30
2023-04-02T10:08:26.389Z,5.20
2023-04-02T10:10:56.918Z,6.00
2023-04-02T10:13:38.362Z,7.80
2023-04-02T10:16:16.450Z,3.80
2023-04-02T10:18:53.089Z,3.10
2023-04-02T10:21:37.515Z,4.00
2023-04-02T10:24:14.838Z,3.60
2023-04-02T10:26:56.766Z,3.80
2023-04-02T10:29:49.364Z,3.30
2023-04-02T10:32:36.876Z,4.30
2023-04-02T10:35:05.125Z,3.80
2023-04-02T10:37:45.112Z,3.70
2023-04-02T10:40:27.070Z,2.60
2023-04-02T10:43:25.154Z,4.40
2023-04-02T10:46:12.063Z,8.00
2023-04-02T10:48:45.709Z,11.80
2023-04-02T10:51:32.217Z,12.80
2023-04-02T10:54:08.261Z,11.00
2023-04-02T10:56:44.459Z,25.70
2023-04-02T10:59:19.938Z,12.70
2023-04-02T11:01:46.965Z,8.40
2023-04-02T11:04:20.369Z,13.70
2023-04-02T11:07:13.130Z,18.60
2023-04-02T11:09:42.800Z,8.50
2023-04-02T11:12:17.860Z,5.60
2023-04-02T11:14:53.858Z,4.70
2023-04-02T11:17:21.378Z,5.60
2023-04-02T11:19:48.328Z,5.50
2023-04-02T11:30:16.163Z,5.00
2023-04-02T11:32:51.617Z,5.60
2023-04-02T11:35:30.803Z,6.10
2023-04-02T11:38:21.252Z,6.60
2023-04-02T11:40:51.608Z,6.40
2023-04-02T11:43:34.105Z,8.50
2023-04-02T11:46:04.271Z,8.70
2023-04-02T11:48:36.422Z,8.50
2023-04-02T11:51:22.651Z,6.80
2023-04-02T11:53:54.991Z,4.90
2023-04-02T11:56:43.791Z,4.30
2023-04-02T11:59:25.817Z,6.00
2023-04-02T12:04:56.636Z,5.40
2023-04-02T12:07:52.277Z,5.00
2023-04-02T12:10:24.025Z,5.30
2023-04-02T12:12:57.714Z,5.00
2023-04-02T12:15:36.887Z,7.00
2023-04-02T12:18:13.222Z,4.80
2023-04-02T12:20:42.820Z,4.70
2023-04-02T12:23:21.440Z,5.40
2023-04-02T12:25:56.995Z,5.80
2023-04-02T12:28:23.996Z,4.90
2023-04-02T12:30:52.017Z,5.20
2023-04-02T12:33:19.483Z,6.30
2023-04-02T12:35:47.431Z,5.70
2023-04-02T12:38:24.087Z,4.80
2023-04-02T12:40:56.181Z,3.80
2023-04-02T12:43:58.940Z,3.50
2023-04-02T12:46:27.023Z,3.60
2023-04-02T12:48:54.771Z,4.10
2023-04-02T12:51:21.917Z,4.50
2023-04-02T12:53:52.451Z,5.80
2023-04-02T12:56:21.765Z,6.50
2023-04-02T12:58:59.380Z,7.20
2023-04-02T13:01:28.422Z,15.30
2023-04-02T13:04:15.027Z,8.00
2023-04-02T13:06:48.692Z,6.10
2023-04-02T13:09:28.875Z,12.20
2023-04-02T13:11:58.801Z,19.60
2023-04-02T13:14:25.616Z,20.40
2023-04-02T13:16:53.023Z,17.90
2023-04-02T13:19:28.651Z,13.50
2023-04-02T13:21:56.499Z,12.30
2023-04-02T13:24:27.777Z,10.30
2023-04-02T13:26:56.979Z,7.20
2023-04-02T13:29:28.990Z,7.10
2023-04-02T13:32:00.893Z,8.90
2023-04-02T13:34:28.122Z,8.20
2023-04-02T13:36:57.398Z,8.90
2023-04-02T13:39:24.994Z,10.20
2023-04-02T13:41:59.535Z,10.30
2023-04-02T13:44:28.101Z,11.20
2023-04-02T13:46:55.254Z,10.90
2023-04-02T13:49:22.920Z,8.60
2023-04-02T13:51:52.832Z,7.80
2023-04-02T13:54:25.852Z,9.40
2023-04-02T13:56:53.440Z,8.70
2023-04-02T13:59:20.372Z,10.30
2023-04-02T14:01:48.141Z,10.50
2023-04-02T14:04:23.729Z,13.00
2023-04-02T14:09:44.952Z,12.20
2023-04-02T14:12:28.693Z,10.30
2023-04-02T14:15:04.948Z,10.60
2023-04-02T14:18:14.202Z,11.20
2023-04-02T14:20:51.642Z,12.90
2023-04-02T14:23:58.349Z,14.10
2023-04-02T14:26:50.513Z,12.90
2023-04-02T14:29:35.120Z,13.30
2023-04-02T14:32:04.943Z,13.90
2023-04-02T14:34:46.728Z,10.30
2023-04-02T14:37:30.494Z,9.10
2023-04-02T14:40:11.485Z,11.50
2023-04-02T14:42:44.236Z,12.40
2023-04-02T14:45:34.886Z,11.80
2023-04-02T14:48:14.403Z,12.70
2023-04-02T14:50:41.911Z,12.30
2023-04-02T15:01:19.874Z,9.60
2023-04-02T15:04:05.198Z,7.70
2023-04-02T15:06:41.212Z,9.00
2023-04-02T15:09:20.083Z,10.60
2023-04-02T15:11:55.667Z,12.10
2023-04-02T15:14:45.779Z,13.90
2023-04-02T15:17:12.205Z,11.60
2023-04-02T15:19:38.448Z,10.10
2023-04-02T15:22:27.347Z,9.30
2023-04-02T15:24:57.936Z,9.30
2023-04-02T15:27:55.678Z,8.20
2023-04-02T15:30:37.221Z,6.50
2023-04-02T15:33:26.275Z,7.70
2023-04-02T15:36:01.498Z,9.10
2023-04-02T15:38:40.953Z,9.70
2023-04-02T15:41:26.915Z,8.90
2023-04-02T15:44:02.639Z,8.50
2023-04-02T15:46:41.376Z,8.70
2023-04-02T15:49:42.395Z,8.70
2023-04-02T15:52:10.411Z,7.60
2023-04-02T15:54:47.385Z,6.00
2023-04-02T15:57:33.745Z,6.30
2023-04-02T16:02:55.083Z,6.50
2023-04-02T16:05:33.144Z,7.10
2023-04-02T16:08:26.469Z,6.60
2023-04-02T16:10:53.688Z,6.60
2023-04-02T16:13:39.158Z,6.90
2023-04-02T16:16:15.301Z,5.80
2023-04-02T16:19:01.963Z,6.10
2023-04-02T16:21:33.236Z,4.80
2023-04-02T16:24:10.897Z,5.00
2023-04-02T16:26:51.957Z,5.60
2023-04-02T16:29:26.267Z,5.60
2023-04-02T16:31:59.708Z,7.60
2023-04-02T16:34:38.009Z,7.10
2023-04-02T16:37:38.496Z,6.70
2023-04-02T16:40:36.748Z,6.60
2023-04-02T16:43:09.086Z,6.30
2023-04-02T16:45:59.760Z,5.40
2023-04-02T16:48:52.412Z,6.00
2023-04-02T16:51:41.280Z,7.60
2023-04-02T16:54:12.026Z,8.20
2023-04-02T16:57:00.892Z,7.70
2023-04-02T16:59:53.600Z,8.50
2023-04-02T17:02:24.734Z,7.40
2023-04-02T17:05:19.771Z,8.70
2023-04-02T17:07:54.890Z,9.20
2023-04-02T17:10:45.916Z,8.30
2023-04-02T17:13:25.246Z,5.70
2023-04-02T17:16:17.362Z,8.10
2023-04-02T17:18:44.033Z,9.10
2023-04-02T17:21:13.513Z,10.60
2023-04-02T17:23:55.914Z,10.20
2023-04-02T17:26:26.371Z,10.90
2023-04-02T17:28:52.799Z,11.60
2023-04-02T17:31:21.761Z,10.40
2023-04-02T17:33:48.505Z,10.60
2023-04-02T17:36:56.707Z,9.50
2023-04-02T17:39:34.967Z,9.30
2023-04-02T17:42:03.657Z,10.00
2023-04-02T17:44:33.114Z,11.10
2023-04-02T17:47:18.278Z,10.80
2023-04-02T17:50:18.382Z,10.10
2023-04-02T17:53:06.209Z,10.10
2023-04-02T17:55:40.057Z,10.30
2023-04-02T17:58:20.340Z,8.00
2023-04-02T18:01:26.950Z,8.30
2023-04-02T18:04:15.336Z,10.20
2023-04-02T18:07:03.429Z,12.60
2023-04-02T18:09:51.603Z,10.10
2023-04-02T18:12:39.415Z,9.30
2023-04-02T18:15:23.884Z,9.30
2023-04-02T18:18:01.913Z,11.00
2023-04-02T18:20:31.845Z,10.20
2023-04-02T18:23:49.681Z,8.70
2023-04-02T18:26:34.542Z,8.30
2023-04-02T18:29:42.657Z,8.60
2023-04-02T18:32:24.493Z,8.80
2023-04-02T18:37:38.547Z,9.00
2023-04-02T18:40:16.559Z,9.40
2023-04-02T18:43:05.338Z,9.70
2023-04-02T18:45:56.311Z,9.90
2023-04-02T18:48:57.884Z,8.00
2023-04-02T18:51:26.546Z,7.10
2023-04-02T18:54:10.767Z,8.40
2023-04-02T18:56:37.797Z,9.80
2023-04-02T18:59:29.761Z,9.70
2023-04-02T19:01:56.100Z,9.70
2023-04-02T19:04:25.842Z,9.90
2023-04-02T19:07:03.995Z,10.20
2023-04-02T19:09:33.508Z,9.90
2023-04-02T19:12:00.744Z,9.30
2023-04-02T19:14:29.527Z,7.50
2023-04-02T19:17:21.847Z,8.20
2023-04-02T19:20:10.912Z,8.20
2023-04-02T19:22:55.675Z,8.20
2023-04-02T19:25:41.164Z,9.10
2023-04-02T19:28:14.562Z,8.70
2023-04-02T19:30:43.046Z,9.60
2023-04-02T19:33:28.302Z,9.50
2023-04-02T19:36:20.327Z,7.60
2023-04-02T19:38:52.927Z,6.10
2023-04-02T19:41:43.594Z,6.00
2023-04-02T19:44:11.833Z,6.00
2023-04-02T19:46:39.081Z,7.60
2023-04-02T19:49:09.441Z,7.50
2023-04-02T19:51:35.631Z,7.00
2023-04-02T19:54:02.272Z,7.00
2023-04-02T19:56:28.959Z,7.30
2023-04-02T19:58:56.752Z,7.60
2023-04-02T20:01:24.345Z,7.70
2023-04-02T20:03:50.947Z,6.40
2023-04-02T20:06:20.724Z,6.20
2023-04-02T20:08:47.845Z,7.10
2023-04-02T20:11:14.052Z,7.90
2023-04-02T20:13:43.237Z,7.40
2023-04-02T20:16:10.800Z,7.80
2023-04-02T20:18:36.931Z,7.30
2023-04-02T20:21:09.446Z,6.80
2023-04-02T20:23:35.889Z,8.00
2023-04-02T20:26:02.949Z,7.30
2023-04-02T20:28:32.431Z,6.50
2023-04-02T20:31:25.298Z,6.30
2023-04-02T20:33:55.910Z,6.70
2023-04-02T20:36:23.993Z,7.10
2023-04-02T20:38:53.506Z,7.10
2023-04-02T20:41:20.860Z,6.60
2023-04-02T20:43:47.129Z,7.10
2023-04-02T20:46:14.083Z,7.40
2023-04-02T20:48:40.384Z,8.10
2023-04-02T20:51:08.121Z,7.40
2023-04-02T20:53:35.247Z,5.70
2023-04-02T20:56:11.672Z,5.20
2023-04-02T20:58:40.378Z,5.80
2023-04-02T21:01:20.470Z,5.90
2023-04-02T21:03:48.515Z,6.80
2023-04-02T21:06:19.305Z,6.80
2023-04-02T21:08:45.643Z,6.40
2023-04-02T21:11:16.042Z,5.80
2023-04-02T21:13:44.514Z,6.80
2023-04-02T21:16:15.823Z,6.50
2023-04-02T21:18:43.045Z,6.30
2023-04-02T21:21:12.926Z,5.70
2023-04-02T21:23:39.845Z,5.40
2023-04-02T21:26:06.604Z,6.00
2023-04-02T21:36:26.530Z,7.50
2023-04-02T21:38:55.825Z,7.00
2023-04-02T21:41:33.141Z,7.00
2023-04-02T21:44:01.089Z,6.40
2023-04-02T21:46:30.586Z,5.40
2023-04-02T21:48:58.982Z,6.10
2023-04-02T21:51:31.625Z,5.70
2023-04-02T21:53:59.233Z,5.90
2023-04-02T21:56:31.185Z,6.40
2023-04-02T21:58:58.666Z,7.10
2023-04-02T22:01:28.141Z,6.40
2023-04-02T22:03:57.138Z,6.50
2023-04-02T22:06:25.502Z,5.90
2023-04-02T22:08:57.204Z,6.10
2023-04-02T22:11:26.636Z,4.30
2023-04-02T22:13:54.147Z,4.10
2023-04-02T22:16:25.421Z,4.30
2023-04-02T22:18:53.558Z,5.00
2023-04-02T22:21:20.501Z,5.20
2023-04-02T22:23:51.821Z,5.10
2023-04-02T22:26:19.730Z,5.50
2023-04-02T22:28:46.760Z,5.30
2023-04-02T22:31:15.719Z,5.90
2023-04-02T22:33:43.480Z,5.10
2023-04-02T22:36:11.046Z,4.40
2023-04-02T22:38:41.004Z,4.50
2023-04-02T22:41:08.495Z,4.50
2023-04-02T22:43:36.303Z,4.90
2023-04-02T22:46:07.052Z,5.60
2023-04-02T22:48:34.829Z,5.30
2023-04-02T22:51:02.334Z,5.10
2023-04-02T22:53:30.638Z,4.60
2023-04-02T22:56:24.866Z,4.80
2023-04-02T22:58:51.796Z,4.10
2023-04-02T23:01:23.943Z,3.50
2023-04-02T23:03:53.249Z,4.40
2023-04-02T23:06:20.939Z,4.00
2023-04-02T23:08:47.933Z,4.70
2023-04-02T23:11:19.477Z,4.80
2023-04-02T23:13:49.943Z,5.20
2023-04-02T23:16:16.997Z,4.60
2023-04-02T23:18:48.088Z,4.90
2023-04-02T23:21:16.433Z,4.60
2023-04-02T23:23:43.241Z,4.70
2023-04-02T23:26:15.617Z,4.00
2023-04-02T23:28:42.437Z,4.20
2023-04-02T23:31:12.397Z,4.10
2023-04-02T23:33:39.790Z,4.40
2023-04-02T23:36:12.039Z,4.40
2023-04-02T23:38:40.489Z,4.20
2023-04-02T23:41:07.781Z,4.70
2023-04-02T23:43:34.550Z,3.80
2023-04-02T23:46:01.630Z,4.20
2023-04-02T23:48:28.731Z,3.90
2023-04-02T23:50:55.465Z,3.40
2023-04-02T23:53:23.272Z,3.50
2023-04-02T23:55:55.713Z,3.70
2023-04-02T23:58:25.102Z,3.80
